Terminal Aerodrome Forecast
Issued by NWS

Home | Current Version | Previous Version | Text Only | Print | Product List | Glossary On
Versions: 1 2 3 4 5 6 7 8 9 10 11 12 13 14 15 16 17 18 19 20
000
FTUS46 KMTR 271556 AAA
TAFSNS
TAF AMD
KSNS 271556Z 2716/2812 00000KT P6SM FEW005 BKN035
     FM271700 30007KT 6SM HZ FU BKN035
     FM271800 31011KT 6SM HZ FU SCT020 BKN150
     FM280300 29010KT 2SM HZ FU BKN004 OVC009=

USA.gov is the U.S. government's official web portal to all federal, state and local government web resources and services.